Time;durP1;ratioP1;P1;durP2;ratioP2;P2;SDS_P1;SDS_P2;PMS_P1;PMS_P2;Temp;Humidity;BMP_temperature;BMP_pressure;BME280_temperature;BME280_humidity;BME280_pressure;Samples;Min_cycle;Max_cycle;Signal;HPM_P1;HPM_P2
2024/04/15 00:01:03;;;;;;;7.60;5.30;;;;;;;;;;5379036;26;20613;-68
2024/04/15 00:03:32;;;;;;;5.50;5.10;;;;;;;;;;5369216;26;20606;-66
2024/04/15 00:05:59;;;;;;;5.57;4.60;;;;;;;;;;5313146;26;20914;-66
2024/04/15 00:08:30;;;;;;;4.40;4.20;;;;;;;;;;5326518;26;20605;-66
2024/04/15 00:10:56;;;;;;;5.13;4.40;;;;;;;;;;5344839;26;20991;-66
2024/04/15 00:13:25;;;;;;;4.67;4.37;;;;;;;;;;5324713;26;20656;-67
2024/04/15 00:15:55;;;;;;;4.40;4.10;;;;;;;;;;5351213;26;20562;-66
2024/04/15 00:18:24;;;;;;;6.73;4.00;;;;;;;;;;5346416;26;21005;-67
2024/04/15 00:20:56;;;;;;;4.67;4.23;;;;;;;;;;5376682;26;20578;-67
2024/04/15 00:23:24;;;;;;;4.20;4.00;;;;;;;;;;5342975;26;20646;-66
2024/04/15 00:25:56;;;;;;;4.83;4.20;;;;;;;;;;5344674;26;20907;-67
2024/04/15 00:28:24;;;;;;;4.43;4.10;;;;;;;;;;5341239;26;20669;-67
2024/04/15 00:30:51;;;;;;;4.23;3.83;;;;;;;;;;5351095;26;20625;-67
2024/04/15 00:33:20;;;;;;;4.13;3.80;;;;;;;;;;5309205;26;20557;-67
2024/04/15 00:35:47;;;;;;;4.70;4.30;;;;;;;;;;5314209;26;20643;-66
2024/04/15 00:38:16;;;;;;;4.43;4.10;;;;;;;;;;5341118;26;20619;-66
2024/04/15 00:40:42;;;;;;;4.30;4.00;;;;;;;;;;5363805;26;21132;-67
2024/04/15 00:43:14;;;;;;;7.30;3.80;;;;;;;;;;5335484;26;21132;-68
2024/04/15 00:45:41;;;;;;;4.30;3.90;;;;;;;;;;5341718;26;20934;-66
2024/04/15 00:48:10;;;;;;;5.30;4.17;;;;;;;;;;5340156;26;21203;-67
2024/04/15 00:50:37;;;;;;;4.10;3.80;;;;;;;;;;5354406;26;20568;-66
2024/04/15 00:53:08;;;;;;;4.47;4.07;;;;;;;;;;5340403;26;20686;-67
2024/04/15 00:55:34;;;;;;;4.37;4.00;;;;;;;;;;5360839;26;20630;-67
2024/04/15 00:58:04;;;;;;;5.97;3.93;;;;;;;;;;5366268;26;21120;-66
2024/04/15 01:00:33;;;;;;;4.50;4.10;;;;;;;;;;5336240;26;20922;-67
2024/04/15 01:03:03;;;;;;;3.80;3.60;;;;;;;;;;5309416;26;20662;-66
2024/04/15 01:05:29;;;;;;;3.67;3.47;;;;;;;;;;5347519;26;20562;-67
2024/04/15 01:07:58;;;;;;;3.57;3.47;;;;;;;;;;5338760;26;20986;-67
2024/04/15 01:10:24;;;;;;;4.10;3.63;;;;;;;;;;5343023;26;20933;-66
2024/04/15 01:12:54;;;;;;;4.00;3.53;;;;;;;;;;5343590;26;20603;-67
2024/04/15 01:15:20;;;;;;;4.10;3.80;;;;;;;;;;5332830;26;20655;-66
2024/04/15 01:17:51;;;;;;;4.87;4.40;;;;;;;;;;5323491;26;21053;-67
2024/04/15 01:20:18;;;;;;;3.70;3.50;;;;;;;;;;5318534;26;20672;-66
2024/04/15 01:22:48;;;;;;;3.40;3.20;;;;;;;;;;5311638;26;21145;-67
2024/04/15 01:25:17;;;;;;;3.57;3.23;;;;;;;;;;5308636;26;20592;-67
2024/04/15 01:27:46;;;;;;;3.53;3.30;;;;;;;;;;5320554;26;20600;-67
2024/04/15 01:30:12;;;;;;;4.13;3.80;;;;;;;;;;5353230;26;20700;-67
2024/04/15 01:32:41;;;;;;;5.43;3.80;;;;;;;;;;5342712;26;20625;-67
2024/04/15 01:35:07;;;;;;;2.83;2.73;;;;;;;;;;5340038;26;21095;-67
2024/04/15 01:37:36;;;;;;;5.10;3.57;;;;;;;;;;5328870;26;20612;-67
2024/04/15 01:40:03;;;;;;;4.87;3.63;;;;;;;;;;5345877;26;20642;-66
2024/04/15 01:42:34;;;;;;;3.37;3.17;;;;;;;;;;5366715;26;20573;-67
2024/04/15 01:45:00;;;;;;;7.80;3.53;;;;;;;;;;5325004;26;20618;-66
2024/04/15 01:47:29;;;;;;;6.40;3.20;;;;;;;;;;5341666;26;21127;-67
2024/04/15 01:49:55;;;;;;;3.40;3.20;;;;;;;;;;5360110;26;20662;-66
2024/04/15 01:52:24;;;;;;;3.70;3.50;;;;;;;;;;5321891;26;20992;-66
2024/04/15 01:54:50;;;;;;;3.50;3.20;;;;;;;;;;5340526;26;21237;-67
2024/04/15 01:57:19;;;;;;;3.33;3.13;;;;;;;;;;5342950;26;20544;-66
2024/04/15 01:59:48;;;;;;;3.40;3.20;;;;;;;;;;5355795;26;20653;-67
2024/04/15 02:02:20;;;;;;;3.03;2.83;;;;;;;;;;5312987;26;21133;-66
2024/04/15 02:04:46;;;;;;;3.80;3.53;;;;;;;;;;5310452;26;20656;-67
2024/04/15 02:07:15;;;;;;;2.90;2.70;;;;;;;;;;5332622;26;20575;-66
2024/04/15 02:09:41;;;;;;;4.70;3.03;;;;;;;;;;5350286;26;21213;-66
2024/04/15 02:12:10;;;;;;;5.10;2.90;;;;;;;;;;5348852;26;20604;-66
2024/04/15 02:14:36;;;;;;;2.40;2.20;;;;;;;;;;5327828;26;20660;-66
2024/04/15 02:17:08;;;;;;;3.40;3.10;;;;;;;;;;5313352;26;20774;-67
2024/04/15 02:19:34;;;;;;;3.00;2.83;;;;;;;;;;5353426;26;20601;-66
2024/04/15 02:22:03;;;;;;;3.67;3.30;;;;;;;;;;5341642;26;21195;-67
2024/04/15 02:24:30;;;;;;;3.77;2.50;;;;;;;;;;5312054;26;21165;-66
2024/04/15 02:26:58;;;;;;;3.00;2.70;;;;;;;;;;5308026;26;20606;-66
2024/04/15 02:29:25;;;;;;;4.80;2.93;;;;;;;;;;5329487;26;20652;-66
2024/04/15 02:31:54;;;;;;;5.97;3.43;;;;;;;;;;5342339;26;20559;-67
2024/04/15 02:34:23;;;;;;;3.57;2.80;;;;;;;;;;5339362;26;20612;-67
2024/04/15 02:36:51;;;;;;;5.07;2.50;;;;;;;;;;5339230;26;20981;-66
2024/04/15 02:39:18;;;;;;;4.27;2.97;;;;;;;;;;5345387;26;20717;-67
2024/04/15 02:41:46;;;;;;;3.43;3.13;;;;;;;;;;5376870;26;20665;-66
2024/04/15 02:44:13;;;;;;;3.00;2.77;;;;;;;;;;5314343;26;20592;-66
2024/04/15 02:46:42;;;;;;;3.57;2.43;;;;;;;;;;5330858;26;20650;-67
2024/04/15 02:49:08;;;;;;;3.97;2.90;;;;;;;;;;5345755;26;20591;-67
2024/04/15 02:51:39;;;;;;;4.50;3.13;;;;;;;;;;5352100;26;20572;-67
2024/04/15 02:54:06;;;;;;;3.03;2.70;;;;;;;;;;5334206;26;20604;-67
2024/04/15 02:56:37;;;;;;;4.10;2.90;;;;;;;;;;5337015;26;20575;-66
2024/04/15 02:59:03;;;;;;;3.37;3.07;;;;;;;;;;5320556;26;20655;-67
2024/04/15 03:01:32;;;;;;;6.93;3.10;;;;;;;;;;5344251;26;20617;-66
2024/04/15 03:03:58;;;;;;;4.10;2.90;;;;;;;;;;5307453;26;20585;-66
2024/04/15 03:06:27;;;;;;;5.23;2.53;;;;;;;;;;5351823;26;20582;-66
2024/04/15 03:08:56;;;;;;;3.80;2.87;;;;;;;;;;5335325;26;20579;-66
2024/04/15 03:11:25;;;;;;;5.60;2.77;;;;;;;;;;5325580;26;20621;-67
2024/04/15 03:13:52;;;;;;;4.13;2.77;;;;;;;;;;5307704;26;20592;-67
2024/04/15 03:16:21;;;;;;;5.13;3.73;;;;;;;;;;5307525;26;20573;-66
2024/04/15 03:18:47;;;;;;;3.10;2.80;;;;;;;;;;5307662;26;20656;-66
2024/04/15 03:21:16;;;;;;;3.60;3.20;;;;;;;;;;5354211;26;21173;-66
2024/04/15 03:23:42;;;;;;;3.30;2.80;;;;;;;;;;5315770;26;20638;-66
2024/04/15 03:26:13;;;;;;;4.83;3.30;;;;;;;;;;5326913;26;20991;-66
2024/04/15 03:28:40;;;;;;;4.40;3.23;;;;;;;;;;5313916;26;20950;-66
2024/04/15 03:31:08;;;;;;;7.27;3.30;;;;;;;;;;5340057;26;20621;-66
2024/04/15 03:33:35;;;;;;;8.50;3.27;;;;;;;;;;5306929;26;20730;-66
2024/04/15 03:36:04;;;;;;;6.40;3.90;;;;;;;;;;5309078;26;20629;-65
2024/04/15 03:38:32;;;;;;;3.83;3.50;;;;;;;;;;5313641;26;20742;-66
2024/04/15 03:41:01;;;;;;;7.00;2.80;;;;;;;;;;5315012;26;20901;-67
2024/04/15 03:43:33;;;;;;;5.50;3.13;;;;;;;;;;5307096;26;21091;-66
2024/04/15 03:45:59;;;;;;;5.60;2.73;;;;;;;;;;5306806;27;20564;-66
2024/04/15 03:48:28;;;;;;;3.47;2.90;;;;;;;;;;5348010;26;20647;-66
2024/04/15 03:50:54;;;;;;;6.37;3.20;;;;;;;;;;5351670;26;20571;-67
2024/04/15 03:53:23;;;;;;;4.93;2.97;;;;;;;;;;5322190;26;21007;-66
2024/04/15 03:55:52;;;;;;;4.33;3.20;;;;;;;;;;5331831;26;20613;-66
2024/04/15 03:58:21;;;;;;;4.37;3.30;;;;;;;;;;5338776;26;20595;-67
2024/04/15 04:00:50;;;;;;;6.40;3.50;;;;;;;;;;5342734;26;20584;-66
2024/04/15 04:03:19;;;;;;;4.13;3.50;;;;;;;;;;5306109;26;20565;-68
2024/04/15 04:05:52;;;;;;;3.50;3.20;;;;;;;;;;5309140;26;20573;-66
2024/04/15 04:08:21;;;;;;;3.27;2.97;;;;;;;;;;5308179;26;20640;-66
2024/04/15 04:10:47;;;;;;;3.20;2.80;;;;;;;;;;5307121;26;20594;-66
2024/04/15 04:13:16;;;;;;;3.60;3.30;;;;;;;;;;5328188;26;20621;-66
2024/04/15 04:15:44;;;;;;;4.67;3.90;;;;;;;;;;5344747;26;20560;-66
2024/04/15 04:18:16;;;;;;;4.13;3.60;;;;;;;;;;5326136;26;20795;-66
2024/04/15 04:20:42;;;;;;;8.30;4.00;;;;;;;;;;5354683;26;20611;-66
2024/04/15 04:23:11;;;;;;;3.80;3.40;;;;;;;;;;5337860;26;20600;-66
2024/04/15 04:25:38;;;;;;;6.90;3.60;;;;;;;;;;5340490;26;20559;-67
2024/04/15 04:28:07;;;;;;;5.10;3.13;;;;;;;;;;5336674;26;20639;-65
2024/04/15 04:30:34;;;;;;;3.07;2.60;;;;;;;;;;5348209;26;20631;-66
2024/04/15 04:33:05;;;;;;;4.20;3.20;;;;;;;;;;5310236;26;20653;-67
2024/04/15 04:35:40;;;;;;;5.80;3.73;;;;;;;;;;5306430;26;20568;-65
2024/04/15 04:38:08;;;;;;;7.53;3.20;;;;;;;;;;5316186;26;20526;-67
2024/04/15 04:40:35;;;;;;;7.77;3.40;;;;;;;;;;5334492;26;20628;-66
2024/04/15 04:43:04;;;;;;;3.50;3.20;;;;;;;;;;5307466;26;20569;-67
2024/04/15 04:45:32;;;;;;;7.23;3.60;;;;;;;;;;5342830;26;21101;-67
2024/04/15 04:48:01;;;;;;;3.47;3.17;;;;;;;;;;5342972;26;20628;-66
2024/04/15 04:50:27;;;;;;;11.43;4.13;;;;;;;;;;5334031;26;20619;-66
2024/04/15 04:52:59;;;;;;;4.30;3.33;;;;;;;;;;5327724;26;20686;-66
2024/04/15 04:55:25;;;;;;;3.53;3.07;;;;;;;;;;5324726;26;20632;-66
2024/04/15 04:57:54;;;;;;;8.47;3.53;;;;;;;;;;5339895;26;20564;-67
2024/04/15 05:00:20;;;;;;;6.50;3.97;;;;;;;;;;5338700;26;21157;-67
2024/04/15 05:02:51;;;;;;;3.70;3.50;;;;;;;;;;5324801;26;20621;-67
2024/04/15 05:05:17;;;;;;;15.83;4.20;;;;;;;;;;5324156;26;20620;-66
2024/04/15 05:07:46;;;;;;;5.73;3.43;;;;;;;;;;5312309;26;20608;-66
2024/04/15 05:10:16;;;;;;;5.50;3.30;;;;;;;;;;5335910;26;20648;-65
2024/04/15 05:12:45;;;;;;;5.90;3.90;;;;;;;;;;5322808;26;20565;-66
2024/04/15 05:15:11;;;;;;;4.50;4.10;;;;;;;;;;5315245;26;20589;-67
2024/04/15 05:17:40;;;;;;;4.67;3.80;;;;;;;;;;5308657;26;20629;-65
2024/04/15 05:20:07;;;;;;;8.70;4.47;;;;;;;;;;5336703;26;20634;-65
2024/04/15 05:22:36;;;;;;;5.63;4.20;;;;;;;;;;5358722;26;20877;-66
2024/04/15 05:25:03;;;;;;;8.93;3.83;;;;;;;;;;5330035;26;21191;-65
2024/04/15 05:27:35;;;;;;;6.27;4.33;;;;;;;;;;5308823;27;20549;-66
2024/04/15 05:30:01;;;;;;;7.07;3.90;;;;;;;;;;5347524;26;20653;-66
2024/04/15 05:32:30;;;;;;;4.17;3.77;;;;;;;;;;5377495;26;20554;-65
2024/04/15 05:34:56;;;;;;;9.23;4.80;;;;;;;;;;5347435;26;20656;-65
2024/04/15 05:37:25;;;;;;;4.57;4.00;;;;;;;;;;5308705;27;20553;-66
2024/04/15 05:39:51;;;;;;;8.57;4.53;;;;;;;;;;5330255;26;20598;-65
2024/04/15 05:42:20;;;;;;;5.30;4.30;;;;;;;;;;5368170;26;20552;-65
2024/04/15 05:44:49;;;;;;;4.63;3.90;;;;;;;;;;5335715;26;20614;-73
2024/04/15 05:47:18;;;;;;;5.00;4.00;;;;;;;;;;5342853;26;20867;-69
2024/04/15 05:49:44;;;;;;;4.67;3.70;;;;;;;;;;5338989;26;20748;-72
2024/04/15 05:52:13;;;;;;;8.80;4.17;;;;;;;;;;5378084;26;20594;-72
2024/04/15 05:54:39;;;;;;;5.70;4.40;;;;;;;;;;5341755;26;21195;-68
2024/04/15 05:57:08;;;;;;;8.30;4.90;;;;;;;;;;5337688;26;20660;-70
2024/04/15 05:59:35;;;;;;;5.37;4.40;;;;;;;;;;5322843;26;20960;-74
2024/04/15 06:02:06;;;;;;;10.60;4.73;;;;;;;;;;5343040;26;20559;-72
2024/04/15 06:04:35;;;;;;;4.53;4.13;;;;;;;;;;5342822;26;20579;-70
2024/04/15 06:07:04;;;;;;;5.73;4.20;;;;;;;;;;5343295;26;20579;-68
2024/04/15 06:09:30;;;;;;;7.70;4.53;;;;;;;;;;5346053;26;20651;-74
2024/04/15 06:11:59;;;;;;;4.83;4.37;;;;;;;;;;5342038;26;20619;-74
2024/04/15 06:14:26;;;;;;;4.97;4.00;;;;;;;;;;5342558;26;20599;-67
2024/04/15 06:16:54;;;;;;;6.90;4.60;;;;;;;;;;5339413;26;20559;-67
2024/04/15 06:19:23;;;;;;;7.53;4.60;;;;;;;;;;5343038;26;20659;-66
2024/04/15 06:21:54;;;;;;;6.87;4.67;;;;;;;;;;5329642;26;21013;-67
2024/04/15 06:24:20;;;;;;;5.70;4.40;;;;;;;;;;5335428;26;21282;-72
2024/04/15 06:26:49;;;;;;;5.83;4.30;;;;;;;;;;5342182;26;20621;-70
2024/04/15 06:29:16;;;;;;;5.93;4.27;;;;;;;;;;5319747;26;20593;-68
2024/04/15 06:31:44;;;;;;;6.43;4.80;;;;;;;;;;5327242;26;20560;-67
2024/04/15 06:34:11;;;;;;;19.10;5.10;;;;;;;;;;5336691;26;20630;-66
2024/04/15 06:36:42;;;;;;;7.73;4.90;;;;;;;;;;5339373;26;20583;-69
2024/04/15 06:39:09;;;;;;;5.70;4.90;;;;;;;;;;5319536;26;20587;-67
2024/04/15 06:41:37;;;;;;;5.60;4.53;;;;;;;;;;5366268;26;20567;-70
2024/04/15 06:44:04;;;;;;;7.70;5.17;;;;;;;;;;5339183;26;21161;-70
2024/04/15 06:46:35;;;;;;;9.63;5.63;;;;;;;;;;5330773;26;20632;-67
2024/04/15 06:49:01;;;;;;;8.33;5.33;;;;;;;;;;5319201;26;20596;-66
2024/04/15 06:51:30;;;;;;;7.53;5.20;;;;;;;;;;5333491;26;20929;-67
2024/04/15 06:53:58;;;;;;;12.53;5.37;;;;;;;;;;5315885;26;20600;-67
2024/04/15 06:56:27;;;;;;;7.00;5.10;;;;;;;;;;5322793;26;20629;-66
2024/04/15 06:58:54;;;;;;;8.60;4.97;;;;;;;;;;5333191;26;20595;-65
2024/04/15 07:01:22;;;;;;;8.03;6.33;;;;;;;;;;5329855;26;20584;-66
2024/04/15 07:03:49;;;;;;;9.13;5.37;;;;;;;;;;5343651;26;20596;-67
2024/04/15 07:06:18;;;;;;;9.50;5.50;;;;;;;;;;5335910;26;20573;-66
2024/04/15 07:08:45;;;;;;;10.20;5.47;;;;;;;;;;5332006;26;20643;-67
2024/04/15 07:11:16;;;;;;;7.83;5.00;;;;;;;;;;5328123;26;20623;-65
2024/04/15 07:13:43;;;;;;;6.40;5.60;;;;;;;;;;5334551;26;20651;-65
2024/04/15 07:16:11;;;;;;;10.27;4.60;;;;;;;;;;5338342;26;21033;-65
2024/04/15 07:18:38;;;;;;;5.00;4.20;;;;;;;;;;5338400;26;20593;-64
2024/04/15 07:21:07;;;;;;;5.70;5.10;;;;;;;;;;5328316;26;20644;-68
2024/04/15 07:23:33;;;;;;;9.00;5.07;;;;;;;;;;5321899;26;20596;-65
2024/04/15 07:26:03;;;;;;;5.97;5.23;;;;;;;;;;5317418;26;20633;-65
2024/04/15 07:28:32;;;;;;;7.33;4.97;;;;;;;;;;5335431;26;20637;-65
2024/04/15 07:31:02;;;;;;;7.20;4.83;;;;;;;;;;5323926;26;20580;-65
2024/04/15 07:33:28;;;;;;;4.87;4.37;;;;;;;;;;5322660;26;20651;-67
2024/04/15 07:35:57;;;;;;;9.07;5.57;;;;;;;;;;5349933;26;21259;-65
2024/04/15 07:38:26;;;;;;;6.73;4.40;;;;;;;;;;5326659;26;21288;-65
2024/04/15 07:40:53;;;;;;;8.93;4.60;;;;;;;;;;5327337;26;20700;-64
2024/04/15 07:43:22;;;;;;;10.10;4.90;;;;;;;;;;5325162;26;20587;-65
2024/04/15 07:45:51;;;;;;;7.93;5.37;;;;;;;;;;5318952;26;20583;-66
2024/04/15 07:48:20;;;;;;;6.00;4.87;;;;;;;;;;5338299;26;21124;-65
2024/04/15 07:50:46;;;;;;;13.23;5.37;;;;;;;;;;5333722;26;20587;-66
2024/04/15 07:53:15;;;;;;;8.03;4.60;;;;;;;;;;5331520;26;20576;-65
2024/04/15 07:55:43;;;;;;;7.17;4.13;;;;;;;;;;5327771;26;20592;-65
2024/04/15 07:58:12;;;;;;;5.00;4.40;;;;;;;;;;5325667;26;20964;-65
2024/04/15 08:00:56;;;;;;;6.00;4.10;;;;;;;;;;5334925;26;20615;-66
2024/04/15 08:03:46;;;;;;;6.73;5.60;;;;;;;;;;5307787;27;20634;-65
2024/04/15 08:06:13;;;;;;;5.30;4.00;;;;;;;;;;5321434;26;20587;-64
2024/04/15 08:08:42;;;;;;;11.43;4.83;;;;;;;;;;5309689;26;21120;-64
2024/04/15 08:11:08;;;;;;;7.00;4.70;;;;;;;;;;5329815;26;20583;-64
2024/04/15 08:13:37;;;;;;;4.80;4.40;;;;;;;;;;5315825;26;20610;-66
2024/04/15 08:16:03;;;;;;;6.37;4.30;;;;;;;;;;5342780;26;20635;-64
2024/04/15 08:18:32;;;;;;;5.57;4.83;;;;;;;;;;5327199;26;20667;-66
2024/04/15 08:21:01;;;;;;;5.83;3.90;;;;;;;;;;5344389;26;20639;-65
2024/04/15 08:23:30;;;;;;;5.13;4.60;;;;;;;;;;5336827;26;20595;-68
2024/04/15 08:25:57;;;;;;;5.67;3.90;;;;;;;;;;5324337;26;20873;-67
2024/04/15 08:28:26;;;;;;;5.20;3.63;;;;;;;;;;5339712;26;21333;-66
2024/04/15 08:30:52;;;;;;;6.47;5.10;;;;;;;;;;5322185;26;20633;-65
2024/04/15 08:33:21;;;;;;;4.13;3.73;;;;;;;;;;5311669;26;20720;-68
2024/04/15 08:35:47;;;;;;;6.90;3.90;;;;;;;;;;5334076;26;20579;-68
2024/04/15 08:38:19;;;;;;;8.40;5.20;;;;;;;;;;5309260;27;20597;-65
2024/04/15 08:40:47;;;;;;;6.43;5.07;;;;;;;;;;5338127;26;20587;-65
2024/04/15 08:43:16;;;;;;;7.73;4.90;;;;;;;;;;5317357;26;20572;-64
2024/04/15 08:45:43;;;;;;;8.43;5.00;;;;;;;;;;5318772;26;20923;-68
2024/04/15 08:48:14;;;;;;;6.63;5.00;;;;;;;;;;5341838;26;20578;-67
2024/04/15 08:50:40;;;;;;;7.23;4.90;;;;;;;;;;5344791;26;20595;-66
2024/04/15 08:53:10;;;;;;;6.57;5.30;;;;;;;;;;5334038;26;20559;-66
2024/04/15 08:55:39;;;;;;;9.43;5.47;;;;;;;;;;5341481;26;21144;-66
2024/04/15 08:58:08;;;;;;;5.67;4.90;;;;;;;;;;5342707;26;20600;-65
2024/04/15 09:00:35;;;;;;;5.57;4.70;;;;;;;;;;5317793;26;20619;-64
2024/04/15 09:03:04;;;;;;;5.57;5.07;;;;;;;;;;5336135;26;20571;-66
2024/04/15 09:05:30;;;;;;;5.07;4.63;;;;;;;;;;5342943;26;20575;-66
2024/04/15 09:08:00;;;;;;;5.10;4.60;;;;;;;;;;5343347;26;21147;-66
2024/04/15 09:10:26;;;;;;;5.30;4.80;;;;;;;;;;5344140;26;20626;-66
2024/04/15 09:12:59;;;;;;;5.20;4.80;;;;;;;;;;5331728;26;21197;-66
2024/04/15 09:15:27;;;;;;;5.80;5.23;;;;;;;;;;5314587;26;20616;-66
2024/04/15 09:17:55;;;;;;;8.83;5.93;;;;;;;;;;5334208;26;21223;-66
2024/04/15 09:20:22;;;;;;;5.10;4.50;;;;;;;;;;5341868;26;20598;-67
2024/04/15 09:22:51;;;;;;;6.97;5.87;;;;;;;;;;5336208;26;20575;-67
2024/04/15 09:25:17;;;;;;;6.30;5.17;;;;;;;;;;5339298;26;20603;-68
2024/04/15 09:27:46;;;;;;;6.90;5.43;;;;;;;;;;5341652;26;20624;-69
2024/04/15 09:30:15;;;;;;;5.53;5.23;;;;;;;;;;5330881;26;20606;-65
2024/04/15 09:32:45;;;;;;;5.97;5.60;;;;;;;;;;5342141;26;20575;-67
2024/04/15 09:35:11;;;;;;;10.83;5.97;;;;;;;;;;5343166;26;20595;-67
2024/04/15 09:37:40;;;;;;;6.40;5.37;;;;;;;;;;5329749;26;20591;-68
2024/04/15 09:40:13;;;;;;;7.27;6.47;;;;;;;;;;5339698;26;20638;-73
2024/04/15 09:42:43;;;;;;;6.27;5.80;;;;;;;;;;5361725;26;20591;-69
2024/04/15 09:45:09;;;;;;;7.50;5.83;;;;;;;;;;5317654;26;20593;-76
2024/04/15 09:47:41;;;;;;;6.50;6.00;;;;;;;;;;5327381;26;20690;-75
2024/04/15 09:50:08;;;;;;;6.10;5.70;;;;;;;;;;5333945;26;20629;-73
2024/04/15 09:52:39;;;;;;;6.53;6.03;;;;;;;;;;5324350;26;20583;-66
2024/04/15 09:55:07;;;;;;;6.03;5.60;;;;;;;;;;5352489;26;20763;-67
2024/04/15 09:57:39;;;;;;;5.73;5.33;;;;;;;;;;5318443;26;21163;-65
2024/04/15 10:00:07;;;;;;;5.30;5.10;;;;;;;;;;5327416;26;20642;-66
2024/04/15 10:02:38;;;;;;;7.10;6.10;;;;;;;;;;5305314;26;20629;-64
2024/04/15 10:05:11;;;;;;;5.83;5.40;;;;;;;;;;5311979;26;20620;-65
2024/04/15 10:07:42;;;;;;;7.00;5.60;;;;;;;;;;5321648;26;20629;-68
2024/04/15 10:10:09;;;;;;;5.67;5.20;;;;;;;;;;5336133;26;20601;-67
2024/04/15 10:12:38;;;;;;;5.70;5.30;;;;;;;;;;5335776;26;20560;-68
2024/04/15 10:15:05;;;;;;;5.93;5.33;;;;;;;;;;5336634;26;20615;-70
2024/04/15 10:17:34;;;;;;;6.17;5.87;;;;;;;;;;5333412;26;20673;-65
2024/04/15 10:20:10;;;;;;;8.60;5.70;;;;;;;;;;5319277;26;20712;-67
2024/04/15 10:22:40;;;;;;;14.60;6.20;;;;;;;;;;5311915;26;20605;-67
2024/04/15 10:25:07;;;;;;;6.63;6.00;;;;;;;;;;5337608;26;20599;-72
2024/04/15 10:27:36;;;;;;;6.23;5.63;;;;;;;;;;5331798;26;20583;-64
2024/04/15 10:30:11;;;;;;;6.73;6.27;;;;;;;;;;5322246;26;21001;-64
2024/04/15 10:32:45;;;;;;;7.20;6.50;;;;;;;;;;5307961;27;20663;-64
2024/04/15 10:35:21;;;;;;;6.43;6.03;;;;;;;;;;5335303;26;20606;-66
2024/04/15 10:37:53;;;;;;;10.00;6.03;;;;;;;;;;5319404;26;20643;-66
2024/04/15 10:40:20;;;;;;;6.30;5.87;;;;;;;;;;5348798;26;20586;-66
2024/04/15 10:42:49;;;;;;;8.07;5.90;;;;;;;;;;5325333;26;20576;-66
2024/04/15 10:45:17;;;;;;;8.83;6.20;;;;;;;;;;5317227;26;20595;-64
2024/04/15 10:47:48;;;;;;;7.60;5.93;;;;;;;;;;5338594;26;20575;-67
2024/04/15 10:50:15;;;;;;;7.30;5.70;;;;;;;;;;5338418;26;21216;-65
2024/04/15 10:52:46;;;;;;;7.10;6.57;;;;;;;;;;5339074;26;20556;-67
2024/04/15 10:55:13;;;;;;;6.43;5.87;;;;;;;;;;5343969;26;21171;-66
2024/04/15 10:57:42;;;;;;;7.13;6.53;;;;;;;;;;5344655;26;20627;-69
2024/04/15 11:00:11;;;;;;;6.47;5.83;;;;;;;;;;5328810;26;20665;-71
2024/04/15 11:02:41;;;;;;;6.20;5.60;;;;;;;;;;5339465;26;20687;-73
2024/04/15 11:05:07;;;;;;;6.60;6.10;;;;;;;;;;5336883;26;20587;-72
2024/04/15 11:07:36;;;;;;;6.37;5.97;;;;;;;;;;5342309;26;20571;-65
2024/04/15 11:10:07;;;;;;;6.60;6.13;;;;;;;;;;5347054;26;21214;-64
2024/04/15 11:12:36;;;;;;;6.70;6.30;;;;;;;;;;5337391;26;20571;-64
2024/04/15 11:15:03;;;;;;;7.03;6.43;;;;;;;;;;5336346;26;20714;-64
2024/04/15 11:17:32;;;;;;;8.37;7.77;;;;;;;;;;5344825;26;20635;-65
2024/04/15 11:19:59;;;;;;;8.10;7.50;;;;;;;;;;5343420;26;20992;-68
2024/04/15 11:22:28;;;;;;;8.27;7.10;;;;;;;;;;5342736;26;20662;-64
2024/04/15 11:24:54;;;;;;;8.23;7.60;;;;;;;;;;5340741;26;21006;-63
2024/04/15 11:27:28;;;;;;;8.43;7.60;;;;;;;;;;5337777;26;20587;-66
2024/04/15 11:29:55;;;;;;;8.17;7.30;;;;;;;;;;5338142;26;20664;-65
2024/04/15 11:32:25;;;;;;;8.40;7.83;;;;;;;;;;5343249;26;20616;-66
2024/04/15 11:34:51;;;;;;;8.37;7.93;;;;;;;;;;5339272;26;20603;-67
2024/04/15 11:37:20;;;;;;;8.70;8.00;;;;;;;;;;5328499;26;20573;-69
2024/04/15 11:39:47;;;;;;;9.30;8.90;;;;;;;;;;5320946;26;20691;-64
2024/04/15 11:42:17;;;;;;;8.70;7.77;;;;;;;;;;5321641;26;20547;-68
2024/04/15 11:44:46;;;;;;;8.40;7.90;;;;;;;;;;5320100;26;20983;-68
2024/04/15 11:47:15;;;;;;;9.20;8.70;;;;;;;;;;5314996;26;20569;-69
2024/04/15 11:49:42;;;;;;;8.57;7.87;;;;;;;;;;5320814;26;20940;-70
2024/04/15 11:52:11;;;;;;;8.80;8.10;;;;;;;;;;5371849;26;20578;-67
2024/04/15 11:54:37;;;;;;;8.67;8.17;;;;;;;;;;5349047;26;20599;-67
2024/04/15 11:57:06;;;;;;;8.87;8.30;;;;;;;;;;5343629;26;20971;-68
2024/04/15 11:59:33;;;;;;;9.00;8.20;;;;;;;;;;5339576;26;20591;-67
2024/04/15 12:02:04;;;;;;;8.23;7.63;;;;;;;;;;5321681;26;20661;-65
2024/04/15 12:04:30;;;;;;;7.97;7.40;;;;;;;;;;5308772;27;21184;-68
2024/04/15 12:06:59;;;;;;;8.87;8.07;;;;;;;;;;5334824;26;20608;-65
2024/04/15 12:09:26;;;;;;;8.20;7.70;;;;;;;;;;5344204;26;20638;-66
2024/04/15 12:11:55;;;;;;;7.90;7.50;;;;;;;;;;5346889;26;20567;-65
2024/04/15 12:14:21;;;;;;;8.43;7.93;;;;;;;;;;5343345;26;21075;-69
2024/04/15 12:16:50;;;;;;;8.30;7.60;;;;;;;;;;5342825;26;20579;-65
2024/04/15 12:19:18;;;;;;;9.23;8.70;;;;;;;;;;5343010;26;21309;-63
2024/04/15 12:21:47;;;;;;;8.80;8.30;;;;;;;;;;5344692;26;20612;-69
2024/04/15 12:24:13;;;;;;;8.40;8.00;;;;;;;;;;5344068;26;20586;-70
2024/04/15 12:26:42;;;;;;;8.77;8.33;;;;;;;;;;5341261;26;20624;-65
2024/04/15 12:29:09;;;;;;;8.87;8.37;;;;;;;;;;5344165;26;20602;-66
2024/04/15 12:31:38;;;;;;;9.20;8.00;;;;;;;;;;5345313;26;20678;-75
2024/04/15 12:34:04;;;;;;;9.67;8.60;;;;;;;;;;5343245;26;20619;-67
2024/04/15 12:36:36;;;;;;;8.83;8.23;;;;;;;;;;5341380;26;20974;-70
2024/04/15 12:39:03;;;;;;;8.50;8.10;;;;;;;;;;5344594;26;20599;-66
2024/04/15 12:41:32;;;;;;;12.87;7.90;;;;;;;;;;5366062;26;20573;-67
2024/04/15 12:43:58;;;;;;;8.63;8.17;;;;;;;;;;5363505;26;20925;-68
2024/04/15 12:46:27;;;;;;;8.23;7.90;;;;;;;;;;5343526;26;20564;-68
2024/04/15 12:48:53;;;;;;;9.17;8.50;;;;;;;;;;5344333;26;20658;-67
2024/04/15 12:51:22;;;;;;;10.40;9.33;;;;;;;;;;5362683;26;21202;-66
2024/04/15 12:53:50;;;;;;;10.70;8.30;;;;;;;;;;5370205;26;20672;-68
2024/04/15 12:56:19;;;;;;;8.40;7.93;;;;;;;;;;5312571;26;22046;-67
2024/04/15 12:58:45;;;;;;;9.00;8.13;;;;;;;;;;5311705;26;20596;-65
2024/04/15 13:01:13;;;;;;;8.80;8.40;;;;;;;;;;5343091;26;20654;-67
2024/04/15 13:03:39;;;;;;;8.53;8.23;;;;;;;;;;5355705;26;20624;-67
2024/04/15 13:06:09;;;;;;;11.27;8.63;;;;;;;;;;5338003;26;20579;-68
2024/04/15 13:08:38;;;;;;;9.47;8.97;;;;;;;;;;5339733;26;20674;-67
2024/04/15 13:11:07;;;;;;;8.77;7.93;;;;;;;;;;5325253;26;21123;-69
2024/04/15 13:13:36;;;;;;;9.07;8.40;;;;;;;;;;5328701;26;20591;-69
2024/04/15 13:16:02;;;;;;;8.87;8.37;;;;;;;;;;5331709;26;20921;-69
2024/04/15 13:18:31;;;;;;;9.60;8.97;;;;;;;;;;5331752;26;20591;-69
2024/04/15 13:20:59;;;;;;;9.17;8.57;;;;;;;;;;5328018;26;20575;-65
2024/04/15 13:23:27;;;;;;;9.80;9.00;;;;;;;;;;5318684;26;20997;-68
2024/04/15 13:25:53;;;;;;;9.17;8.80;;;;;;;;;;5326152;26;20635;-66
2024/04/15 13:28:24;;;;;;;11.20;8.60;;;;;;;;;;5336525;26;20666;-67
2024/04/15 13:30:51;;;;;;;9.33;8.60;;;;;;;;;;5354346;26;20621;-68
2024/04/15 13:33:19;;;;;;;8.40;7.90;;;;;;;;;;5350404;26;20662;-67
2024/04/15 13:35:45;;;;;;;8.97;8.50;;;;;;;;;;5358446;26;20637;-67
2024/04/15 13:38:14;;;;;;;9.30;8.53;;;;;;;;;;5347678;26;20615;-66
2024/04/15 13:40:39;;;;;;;9.17;8.67;;;;;;;;;;5337045;26;20572;-67
2024/04/15 13:43:09;;;;;;;8.80;8.40;;;;;;;;;;5339310;26;21178;-65
2024/04/15 13:45:37;;;;;;;9.00;8.50;;;;;;;;;;5342219;26;20587;-65
2024/04/15 13:48:07;;;;;;;8.83;8.03;;;;;;;;;;5338910;26;20636;-66
2024/04/15 13:50:33;;;;;;;8.67;8.03;;;;;;;;;;5331475;26;20575;-68
2024/04/15 13:53:02;;;;;;;8.83;8.40;;;;;;;;;;5341263;26;20567;-69
2024/04/15 13:55:28;;;;;;;8.80;8.40;;;;;;;;;;5342031;26;20579;-66
2024/04/15 13:57:57;;;;;;;9.03;8.57;;;;;;;;;;5342021;26;20572;-66
2024/04/15 14:00:23;;;;;;;8.87;8.27;;;;;;;;;;5346494;26;20579;-70
2024/04/15 14:02:55;;;;;;;9.13;8.43;;;;;;;;;;5337829;26;20571;-68
2024/04/15 14:05:21;;;;;;;8.60;8.20;;;;;;;;;;5326007;26;21005;-67
2024/04/15 14:07:50;;;;;;;9.60;8.63;;;;;;;;;;5308082;27;20593;-71
2024/04/15 14:10:16;;;;;;;9.37;8.73;;;;;;;;;;5312408;26;20650;-67
2024/04/15 14:12:45;;;;;;;9.33;8.60;;;;;;;;;;5357045;26;20632;-68
2024/04/15 14:15:11;;;;;;;10.07;9.17;;;;;;;;;;5326041;26;20710;-68
2024/04/15 14:17:41;;;;;;;9.33;8.50;;;;;;;;;;5337849;26;20583;-67
2024/04/15 14:20:11;;;;;;;8.93;8.43;;;;;;;;;;5342739;26;20643;-72
2024/04/15 14:22:40;;;;;;;9.30;8.90;;;;;;;;;;5310614;26;20633;-74
2024/04/15 14:25:06;;;;;;;10.63;9.20;;;;;;;;;;5312671;26;20602;-67
2024/04/15 14:27:35;;;;;;;9.57;8.87;;;;;;;;;;5327694;26;20687;-68
2024/04/15 14:30:02;;;;;;;9.90;9.10;;;;;;;;;;5318528;26;20604;-70
2024/04/15 14:32:30;;;;;;;10.43;9.63;;;;;;;;;;5309998;26;20675;-70
2024/04/15 14:34:57;;;;;;;9.10;8.60;;;;;;;;;;5322229;26;20645;-68
2024/04/15 14:37:28;;;;;;;9.30;8.87;;;;;;;;;;5319659;26;20597;-66
2024/04/15 14:39:57;;;;;;;8.80;8.30;;;;;;;;;;5340776;26;20595;-68
2024/04/15 14:42:23;;;;;;;10.10;9.10;;;;;;;;;;5360477;26;20586;-67
2024/04/15 14:44:52;;;;;;;10.80;9.93;;;;;;;;;;5341719;26;20655;-67
2024/04/15 14:47:19;;;;;;;9.20;8.43;;;;;;;;;;5334281;26;20592;-66
2024/04/15 14:49:48;;;;;;;13.87;9.03;;;;;;;;;;5323239;26;20612;-68